createdAt,value
2018-10-09T00:00:37.564Z,160.63
2018-10-09T00:03:29.149Z,159.22
2018-10-09T00:06:22.242Z,168.20
2018-10-09T00:09:16.829Z,170.10
2018-10-09T00:12:07.775Z,170.80
2018-10-09T00:14:58.947Z,168.00
2018-10-09T00:17:50.068Z,186.82
2018-10-09T00:20:42.900Z,176.35
2018-10-09T00:23:34.253Z,195.95
2018-10-09T00:26:25.573Z,205.52
2018-10-09T00:29:17.273Z,183.10
2018-10-09T00:32:08.035Z,168.90
2018-10-09T00:34:59.050Z,180.37
2018-10-09T00:37:50.229Z,246.07
2018-10-09T00:40:42.564Z,172.32
2018-10-09T00:43:33.843Z,200.70
2018-10-09T00:46:25.123Z,204.57
2018-10-09T00:49:18.883Z,187.10
2018-10-09T00:52:09.680Z,204.28
2018-10-09T00:55:00.549Z,202.50
2018-10-09T00:57:51.727Z,226.70
2018-10-09T01:00:42.890Z,252.30
2018-10-09T01:03:33.841Z,246.87
2018-10-09T01:06:24.951Z,274.12
2018-10-09T01:09:16.636Z,265.57
2018-10-09T01:12:07.355Z,278.42
2018-10-09T01:14:59.110Z,292.52
2018-10-09T01:17:49.760Z,323.13
2018-10-09T01:20:41.706Z,342.65
2018-10-09T01:23:32.400Z,384.00
2018-10-09T01:26:23.603Z,359.32
2018-10-09T01:29:15.880Z,358.98
2018-10-09T01:32:07.313Z,369.07
2018-10-09T01:34:59.279Z,333.07
2018-10-09T01:37:50.752Z,310.40
2018-10-09T01:40:41.263Z,287.33
2018-10-09T01:43:32.664Z,311.70
2018-10-09T01:46:23.283Z,255.98
2018-10-09T01:49:16.324Z,270.85
2018-10-09T01:52:09.453Z,275.32
2018-10-09T01:55:00.936Z,258.87
2018-10-09T01:57:51.642Z,258.38
2018-10-09T02:00:42.759Z,275.45
2018-10-09T02:03:33.546Z,266.17
2018-10-09T02:06:25.623Z,262.52
2018-10-09T02:09:16.881Z,279.90
2018-10-09T02:12:08.135Z,285.90
2018-10-09T02:14:58.967Z,276.35
2018-10-09T02:17:50.319Z,302.45
2018-10-09T02:20:40.837Z,314.50
2018-10-09T02:23:31.646Z,340.65
2018-10-09T02:26:22.644Z,332.87
2018-10-09T02:29:15.043Z,479.70
2018-10-09T02:32:06.198Z,424.62
2018-10-09T02:34:57.251Z,445.55
2018-10-09T02:37:48.313Z,392.27
2018-10-09T02:40:39.218Z,380.25
2018-10-09T02:43:30.507Z,402.32
2018-10-09T02:46:22.132Z,413.80
2018-10-09T02:49:13.515Z,383.05
2018-10-09T02:52:05.041Z,366.55
2018-10-09T02:54:56.529Z,379.70
2018-10-09T02:57:48.040Z,385.85
2018-10-09T03:00:38.948Z,359.02
2018-10-09T03:03:29.885Z,364.75
2018-10-09T03:06:20.648Z,334.02
2018-10-09T03:09:12.971Z,343.70
2018-10-09T03:12:03.852Z,333.17
2018-10-09T03:14:55.128Z,289.40
2018-10-09T03:17:46.079Z,302.95
2018-10-09T03:20:40.197Z,338.73
2018-10-09T03:23:31.054Z,339.60
2018-10-09T03:26:22.692Z,301.73
2018-10-09T03:29:13.687Z,292.50
2018-10-09T03:32:04.761Z,306.87
2018-10-09T03:34:56.030Z,316.55
2018-10-09T03:37:47.911Z,291.47
2018-10-09T03:40:39.524Z,294.73
2018-10-09T03:43:30.339Z,334.30
2018-10-09T03:46:21.375Z,280.32
2018-10-09T03:49:13.060Z,304.90
2018-10-09T03:52:03.813Z,301.18
2018-10-09T03:54:55.096Z,300.30
2018-10-09T03:57:46.248Z,332.30
2018-10-09T04:00:37.242Z,336.32
2018-10-09T04:03:29.712Z,353.55
2018-10-09T04:06:20.704Z,393.85
2018-10-09T04:09:16.232Z,358.98
2018-10-09T04:12:08.080Z,395.67
2018-10-09T04:14:59.021Z,303.32
2018-10-09T04:17:49.719Z,301.98
2018-10-09T04:20:40.863Z,257.20
2018-10-09T04:23:31.809Z,233.57
2018-10-09T04:26:23.353Z,225.05
2018-10-09T04:29:15.594Z,217.05
2018-10-09T04:32:06.041Z,202.82
2018-10-09T04:34:58.082Z,198.95
2018-10-09T04:37:48.628Z,189.67
2018-10-09T04:40:41.008Z,203.85
2018-10-09T04:43:31.715Z,176.47
2018-10-09T04:46:23.135Z,174.47
2018-10-09T04:49:14.918Z,152.30
2018-10-09T04:52:05.887Z,166.15
2018-10-09T04:54:59.182Z,164.95
2018-10-09T04:57:52.204Z,148.43
2018-10-09T05:00:44.390Z,193.80
2018-10-09T05:03:35.678Z,142.35
2018-10-09T05:06:28.792Z,130.20
2018-10-09T05:09:19.849Z,163.15
2018-10-09T05:12:10.715Z,176.32
2018-10-09T05:15:02.140Z,148.62
2018-10-09T05:17:56.552Z,167.93
2018-10-09T05:20:50.234Z,170.72
2018-10-09T05:23:45.445Z,131.20
2018-10-09T05:26:36.809Z,143.07
2018-10-09T05:29:29.779Z,119.95
2018-10-09T05:32:23.642Z,137.22
2018-10-09T05:35:18.632Z,185.52
2018-10-09T05:38:11.091Z,138.50
2018-10-09T05:41:02.303Z,149.53
2018-10-09T05:43:54.191Z,184.55
2018-10-09T05:46:52.675Z,166.37
2018-10-09T05:49:57.961Z,137.52
2018-10-09T05:52:51.260Z,115.55
2018-10-09T05:55:45.850Z,110.45
2018-10-09T06:01:55.844Z,104.78
2018-10-09T06:07:55.780Z,118.53
2018-10-09T06:10:53.677Z,88.60
2018-10-09T06:13:49.778Z,99.05
2018-10-09T06:16:47.454Z,103.75
2018-10-09T06:19:40.368Z,121.50
2018-10-09T06:22:32.738Z,110.68
2018-10-09T06:25:28.753Z,96.22
2018-10-09T06:28:22.106Z,106.67
2018-10-09T06:31:15.558Z,106.65
2018-10-09T06:34:08.785Z,105.40
2018-10-09T06:37:01.459Z,101.45
2018-10-09T06:39:55.981Z,109.80
2018-10-09T06:42:50.249Z,127.80
2018-10-09T06:45:43.332Z,120.47
2018-10-09T06:48:35.831Z,100.80
2018-10-09T06:51:28.433Z,123.28
2018-10-09T06:54:26.570Z,95.80
2018-10-09T06:57:19.529Z,102.82
2018-10-09T07:00:22.956Z,85.53
2018-10-09T07:03:37.957Z,95.90
2018-10-09T07:06:40.458Z,69.80
2018-10-09T07:09:48.502Z,68.30
2018-10-09T07:12:46.029Z,75.22
2018-10-09T07:15:42.236Z,83.95
2018-10-09T07:18:38.784Z,69.55
2018-10-09T07:21:33.559Z,66.65
2018-10-09T07:24:34.112Z,84.28
2018-10-09T07:27:27.089Z,81.47
2018-10-09T07:30:21.095Z,77.35
2018-10-09T07:33:15.338Z,87.53
2018-10-09T07:36:36.448Z,78.47
2018-10-09T07:39:48.497Z,75.45
2018-10-09T08:00:40.226Z,58.48
2018-10-09T08:03:33.985Z,57.55
2018-10-09T08:06:28.882Z,57.80
2018-10-09T08:09:25.745Z,67.03
2018-10-09T08:12:19.860Z,65.85
2018-10-09T08:15:11.899Z,53.87
2018-10-09T08:18:05.450Z,58.45
2018-10-09T08:21:01.312Z,82.37
2018-10-09T08:23:55.827Z,72.20
2018-10-09T08:26:47.223Z,52.90
2018-10-09T08:29:39.836Z,64.05
2018-10-09T08:32:34.731Z,52.50
2018-10-09T08:35:28.306Z,59.70
2018-10-09T08:38:22.569Z,72.90
2018-10-09T08:41:14.316Z,52.33
2018-10-09T08:44:07.478Z,54.30
2018-10-09T08:47:08.232Z,64.05
2018-10-09T08:50:07.021Z,41.98
2018-10-09T08:53:06.363Z,61.02
2018-10-09T08:55:59.513Z,44.50
2018-10-09T08:58:53.179Z,50.63
2018-10-09T09:01:46.857Z,61.05
2018-10-09T09:04:39.216Z,53.13
2018-10-09T09:07:30.517Z,51.95
2018-10-09T09:10:23.569Z,52.67
2018-10-09T09:13:15.432Z,54.15
2018-10-09T09:16:08.610Z,51.53
2018-10-09T09:19:03.856Z,53.33
2018-10-09T09:22:00.234Z,65.55
2018-10-09T09:24:55.345Z,56.40
2018-10-09T09:27:51.332Z,63.80
2018-10-09T09:30:46.530Z,57.55
2018-10-09T09:33:41.470Z,52.20
2018-10-09T09:36:38.623Z,49.73
2018-10-09T09:39:33.082Z,53.45
2018-10-09T09:42:27.620Z,51.42
2018-10-09T09:45:21.041Z,55.33
2018-10-09T09:48:17.536Z,57.60
2018-10-09T09:51:10.799Z,57.08
2018-10-09T09:54:05.763Z,48.17
2018-10-09T09:56:59.734Z,53.98
2018-10-09T09:59:59.718Z,58.10
2018-10-09T10:02:52.374Z,68.25
2018-10-09T10:05:46.357Z,53.78
2018-10-09T10:08:42.605Z,55.40
2018-10-09T10:11:35.594Z,48.98
2018-10-09T10:14:29.204Z,44.53
2018-10-09T10:17:34.500Z,55.52
2018-10-09T10:20:27.504Z,56.25
2018-10-09T10:23:22.199Z,56.45
2018-10-09T10:26:16.747Z,43.00
2018-10-09T10:29:08.829Z,61.23
2018-10-09T10:32:01.082Z,57.85
2018-10-09T10:34:53.335Z,54.23
2018-10-09T10:37:45.870Z,46.05
2018-10-09T10:40:39.188Z,53.33
2018-10-09T10:43:37.868Z,47.08
2018-10-09T10:46:39.777Z,38.23
2018-10-09T10:49:35.910Z,50.63
2018-10-09T10:52:37.359Z,52.65
2018-10-09T10:55:32.026Z,65.57
2018-10-09T10:58:29.283Z,52.13
2018-10-09T11:01:24.223Z,55.40
2018-10-09T11:09:00.764Z,53.55
2018-10-09T11:12:04.572Z,47.00
2018-10-09T11:15:04.739Z,38.53
2018-10-09T11:18:04.924Z,51.83
2018-10-09T11:21:01.151Z,57.13
2018-10-09T11:24:09.685Z,50.43
2018-10-09T11:27:05.052Z,51.73
2018-10-09T11:29:59.677Z,57.53
2018-10-09T11:32:55.984Z,56.80
2018-10-09T11:35:51.644Z,61.08
2018-10-09T11:38:52.792Z,55.08
2018-10-09T11:41:50.617Z,63.20
2018-10-09T11:44:48.947Z,53.90
2018-10-09T11:47:42.653Z,45.52
2018-10-09T11:50:38.032Z,57.13
2018-10-09T11:53:30.830Z,56.88
2018-10-09T11:56:25.101Z,64.50
2018-10-09T11:59:24.039Z,73.65
2018-10-09T12:02:40.510Z,68.25
2018-10-09T12:05:33.186Z,79.77
2018-10-09T12:08:25.887Z,68.75
2018-10-09T12:11:19.290Z,61.20
2018-10-09T12:14:11.863Z,64.05
2018-10-09T12:17:04.871Z,72.40
2018-10-09T12:19:57.429Z,79.87
2018-10-09T12:22:48.574Z,71.00
2018-10-09T12:25:40.384Z,74.42
2018-10-09T12:28:31.677Z,81.82
2018-10-09T12:31:23.060Z,90.77
2018-10-09T12:34:16.999Z,99.05
2018-10-09T12:37:08.673Z,73.75
2018-10-09T12:39:59.806Z,82.20
2018-10-09T12:42:53.041Z,83.03
2018-10-09T12:45:44.150Z,78.87
2018-10-09T12:48:35.154Z,86.47
2018-10-09T12:51:26.775Z,82.90
2018-10-09T12:54:19.009Z,83.67
2018-10-09T12:57:12.309Z,99.77
2018-10-09T13:00:04.053Z,86.95
2018-10-09T13:02:55.356Z,78.62
2018-10-09T13:05:46.762Z,93.67
2018-10-09T13:08:37.375Z,82.55
2018-10-09T13:11:28.112Z,79.17
2018-10-09T13:14:18.970Z,93.95
2018-10-09T13:17:10.243Z,97.67
2018-10-09T13:20:02.028Z,75.75
2018-10-09T13:22:54.714Z,112.50
2018-10-09T13:25:47.205Z,87.17
2018-10-09T13:28:38.303Z,100.75
2018-10-09T13:31:29.451Z,112.50
2018-10-09T13:34:20.188Z,114.90
2018-10-09T13:37:12.204Z,113.85
2018-10-09T13:40:04.067Z,130.40
2018-10-09T13:42:55.021Z,126.87
2018-10-09T13:45:47.094Z,114.28
2018-10-09T13:48:39.313Z,111.15
2018-10-09T13:51:35.817Z,116.85
2018-10-09T13:54:33.538Z,115.37
2018-10-09T13:57:25.575Z,124.85
2018-10-09T14:00:17.317Z,120.13
2018-10-09T14:03:09.272Z,132.03
2018-10-09T14:06:00.949Z,136.82
2018-10-09T14:08:52.166Z,141.95
2018-10-09T14:11:43.924Z,149.93
2018-10-09T14:14:34.656Z,154.27
2018-10-09T14:17:26.282Z,139.25
2018-10-09T14:20:17.252Z,147.95
2018-10-09T14:23:08.245Z,141.45
2018-10-09T14:25:59.488Z,137.80
2018-10-09T14:28:50.902Z,146.13
2018-10-09T14:31:43.609Z,133.18
2018-10-09T14:34:34.368Z,138.05
2018-10-09T14:37:26.253Z,127.80
2018-10-09T14:40:16.939Z,153.50
2018-10-09T14:43:09.010Z,158.05
2018-10-09T14:45:59.915Z,167.62
2018-10-09T14:48:50.704Z,166.03
2018-10-09T14:51:41.665Z,135.72
2018-10-09T14:54:32.102Z,112.35
2018-10-09T14:57:23.539Z,116.28
2018-10-09T15:00:15.854Z,119.97
2018-10-09T15:03:06.950Z,127.80
2018-10-09T15:05:58.128Z,119.90
2018-10-09T15:08:49.525Z,116.47
2018-10-09T15:11:41.799Z,127.22
2018-10-09T15:14:32.647Z,105.95
2018-10-09T15:17:25.768Z,118.22
2018-10-09T15:20:17.760Z,119.08
2018-10-09T15:23:10.552Z,118.10
2018-10-09T15:26:01.714Z,116.93
2018-10-09T15:28:54.075Z,104.60
2018-10-09T15:31:45.375Z,114.25
2018-10-09T15:34:35.979Z,115.37
2018-10-09T15:37:28.731Z,110.05
2018-10-09T15:40:20.704Z,94.28
2018-10-09T15:43:12.262Z,100.27
2018-10-09T15:46:05.412Z,134.87
2018-10-09T15:48:56.130Z,103.17
2018-10-09T15:51:47.363Z,142.37
2018-10-09T15:54:37.929Z,123.78
2018-10-09T15:57:28.655Z,115.05
2018-10-09T16:00:21.573Z,137.95
2018-10-09T16:03:13.201Z,138.85
2018-10-09T16:06:05.728Z,140.15
2018-10-09T16:08:57.248Z,126.10
2018-10-09T16:11:48.970Z,140.25
2018-10-09T16:14:40.088Z,147.57
2018-10-09T16:17:33.656Z,127.15
2018-10-09T16:20:24.490Z,121.00
2018-10-09T16:23:15.485Z,127.95
2018-10-09T16:26:06.557Z,128.35
2018-10-09T16:28:57.324Z,129.32
2018-10-09T16:31:49.807Z,130.80
2018-10-09T16:34:43.530Z,127.35
2018-10-09T16:37:36.014Z,99.22
2018-10-09T16:40:26.665Z,112.05
2018-10-09T16:43:17.716Z,122.25
2018-10-09T16:46:09.333Z,123.55
2018-10-09T16:49:01.334Z,128.20
2018-10-09T16:51:52.514Z,111.95
2018-10-09T16:54:43.683Z,103.97
2018-10-09T16:57:34.796Z,136.40
2018-10-09T17:00:26.757Z,105.65
2018-10-09T17:03:17.889Z,120.72
2018-10-09T17:06:08.269Z,105.27
2018-10-09T17:08:59.251Z,100.60
2018-10-09T17:11:49.862Z,100.20
2018-10-09T17:14:41.068Z,109.65
2018-10-09T17:17:32.756Z,99.47
2018-10-09T17:20:23.886Z,93.75
2018-10-09T17:23:16.071Z,106.22
2018-10-09T17:26:06.902Z,101.27
2018-10-09T17:28:58.134Z,95.15
2018-10-09T17:31:49.128Z,125.10
2018-10-09T17:34:40.112Z,117.35
2018-10-09T17:37:32.145Z,123.82
2018-10-09T17:40:23.413Z,130.37
2018-10-09T17:43:14.163Z,154.60
2018-10-09T17:46:05.408Z,189.75
2018-10-09T17:48:56.616Z,196.30
2018-10-09T17:51:48.465Z,219.72
2018-10-09T17:54:38.916Z,214.25
2018-10-09T17:57:30.171Z,196.50
2018-10-09T18:00:20.938Z,177.32
2018-10-09T18:03:12.235Z,166.18
2018-10-09T18:06:05.849Z,143.50
2018-10-09T18:08:56.754Z,150.87
2018-10-09T18:11:47.254Z,126.62
2018-10-09T18:14:38.759Z,124.30
2018-10-09T18:17:29.407Z,106.80
2018-10-09T18:20:20.514Z,118.65
2018-10-09T18:23:13.565Z,106.32
2018-10-09T18:26:05.300Z,95.92
2018-10-09T18:28:58.320Z,99.77
2018-10-09T18:31:49.826Z,90.47
2018-10-09T18:34:40.753Z,104.43
2018-10-09T18:37:32.620Z,95.00
2018-10-09T18:40:24.088Z,93.60
2018-10-09T18:43:16.777Z,88.50
2018-10-09T18:46:07.905Z,114.22
2018-10-09T18:48:58.924Z,115.45
2018-10-09T18:51:49.739Z,113.80
2018-10-09T18:54:40.823Z,125.42
2018-10-09T18:57:32.208Z,116.60
2018-10-09T19:00:24.228Z,116.25
2018-10-09T19:03:15.149Z,134.75
2018-10-09T19:06:05.678Z,136.50
2018-10-09T19:08:57.909Z,139.97
2018-10-09T19:11:48.504Z,166.40
2018-10-09T19:14:39.538Z,182.37
2018-10-09T19:17:30.886Z,157.82
2018-10-09T19:20:22.441Z,158.27
2018-10-09T19:23:14.344Z,174.47
2018-10-09T19:26:07.100Z,167.25
2018-10-09T19:28:58.186Z,167.65
2018-10-09T19:31:49.204Z,151.93
2018-10-09T19:34:40.105Z,149.15
2018-10-09T19:37:32.202Z,155.63
2018-10-09T19:40:23.725Z,147.37
2018-10-09T19:43:16.430Z,150.15
2018-10-09T19:46:07.504Z,145.57
2018-10-09T19:48:58.309Z,153.05
2018-10-09T19:51:49.161Z,146.37
2018-10-09T19:54:40.427Z,144.15
2018-10-09T19:57:33.326Z,169.80
2018-10-09T20:00:24.486Z,177.53
2018-10-09T20:03:15.173Z,167.13
2018-10-09T20:06:05.755Z,164.10
2018-10-09T20:08:57.639Z,160.12
2018-10-09T20:11:48.873Z,162.30
2018-10-09T20:14:40.090Z,191.25
2018-10-09T20:17:30.522Z,175.65
2018-10-09T20:20:22.028Z,195.15
2018-10-09T20:23:12.824Z,190.32
2018-10-09T20:26:03.829Z,163.28
2018-10-09T20:28:55.745Z,164.05
2018-10-09T20:31:47.027Z,166.45
2018-10-09T20:34:37.973Z,164.70
2018-10-09T20:37:29.657Z,167.10
2018-10-09T20:40:21.019Z,168.35
2018-10-09T20:43:12.443Z,167.40
2018-10-09T20:46:05.635Z,169.22
2018-10-09T20:48:57.579Z,159.37
2018-10-09T20:51:49.044Z,167.22
2018-10-09T20:54:40.544Z,157.67
2018-10-09T20:57:30.981Z,148.97
2018-10-09T21:00:24.514Z,158.85
2018-10-09T21:03:15.061Z,152.82
2018-10-09T21:06:05.938Z,129.12
2018-10-09T21:08:56.822Z,135.57
2018-10-09T21:11:48.142Z,131.85
2018-10-09T21:14:38.857Z,146.02
2018-10-09T21:17:29.490Z,128.30
2018-10-09T21:20:20.306Z,130.40
2018-10-09T21:23:11.249Z,123.40
2018-10-09T21:26:02.003Z,139.92
2018-10-09T21:28:53.231Z,136.92
2018-10-09T21:31:44.930Z,112.50
2018-10-09T21:34:35.849Z,108.20
2018-10-09T21:37:28.277Z,99.35
2018-10-09T21:40:19.910Z,100.25
2018-10-09T21:43:10.981Z,110.85
2018-10-09T21:46:01.662Z,103.65
2018-10-09T21:48:52.736Z,105.17
2018-10-09T21:51:44.440Z,107.40
2018-10-09T21:54:35.678Z,108.72
2018-10-09T21:57:27.498Z,107.60
2018-10-09T22:00:22.006Z,87.20
2018-10-09T22:03:15.179Z,118.05
2018-10-09T22:06:06.542Z,109.37
2018-10-09T22:08:57.650Z,117.45
2018-10-09T22:11:50.952Z,102.60
2018-10-09T22:14:42.836Z,107.75
2018-10-09T22:17:33.978Z,95.25
2018-10-09T22:20:24.863Z,118.02
2018-10-09T22:23:15.937Z,98.27
2018-10-09T22:26:07.515Z,99.05
2018-10-09T22:28:58.259Z,106.80
2018-10-09T22:31:49.241Z,94.35
2018-10-09T22:34:41.017Z,101.35
2018-10-09T22:37:32.803Z,98.00
2018-10-09T22:40:24.011Z,103.97
2018-10-09T22:43:15.275Z,115.77
2018-10-09T22:46:07.751Z,95.05
2018-10-09T22:48:59.185Z,90.87
2018-10-09T22:51:49.396Z,91.15
2018-10-09T22:54:41.307Z,97.17
2018-10-09T22:57:34.023Z,95.53
2018-10-09T23:00:24.773Z,96.97
2018-10-09T23:03:16.656Z,79.72
2018-10-09T23:06:08.305Z,86.85
2018-10-09T23:12:54.180Z,95.07
2018-10-09T23:15:44.670Z,90.53
2018-10-09T23:18:35.951Z,90.62
2018-10-09T23:21:26.461Z,86.82
2018-10-09T23:24:17.457Z,95.30
2018-10-09T23:27:08.396Z,84.28
2018-10-09T23:29:59.270Z,98.95
2018-10-09T23:32:50.187Z,88.47
2018-10-09T23:35:41.076Z,90.47
2018-10-09T23:38:34.471Z,84.17
2018-10-09T23:41:25.919Z,81.28
2018-10-09T23:44:17.003Z,76.62
2018-10-09T23:47:07.797Z,75.08
2018-10-09T23:49:58.658Z,77.08
2018-10-09T23:52:49.372Z,82.02
2018-10-09T23:55:40.772Z,89.52
2018-10-09T23:58:32.411Z,93.07
